createdAt,value
2023-04-07T00:00:31.527Z,1.28
2023-04-07T00:01:31.499Z,1.25
2023-04-07T00:02:31.418Z,1.23
2023-04-07T00:03:52.339Z,1.30
2023-04-07T00:04:31.245Z,1.29
2023-04-07T00:05:31.092Z,1.40
2023-04-07T00:06:31.015Z,1.38
2023-04-07T00:07:30.920Z,1.34
2023-04-07T00:08:30.831Z,1.36
2023-04-07T00:09:51.721Z,1.29
2023-04-07T00:10:30.663Z,1.28
2023-04-07T00:11:30.571Z,1.28
2023-04-07T00:12:30.486Z,1.36
2023-04-07T00:13:30.874Z,1.29
2023-04-07T00:14:30.313Z,1.28
2023-04-07T00:15:51.289Z,1.26
2023-04-07T00:16:30.136Z,1.25
2023-04-07T00:17:30.094Z,1.26
2023-04-07T00:18:29.966Z,1.30
2023-04-07T00:19:29.882Z,1.20
2023-04-07T00:20:29.816Z,1.16
2023-04-07T00:21:50.690Z,1.20
2023-04-07T00:22:29.621Z,1.22
2023-04-07T00:23:29.543Z,1.22
2023-04-07T00:24:34.273Z,1.20
2023-04-07T00:25:29.372Z,1.20
2023-04-07T00:26:29.282Z,1.26
2023-04-07T00:27:50.182Z,1.25
2023-04-07T00:28:29.109Z,1.23
2023-04-07T00:29:29.032Z,1.30
2023-04-07T00:30:28.943Z,1.32
2023-04-07T00:31:28.916Z,1.23
2023-04-07T00:32:28.824Z,1.28
2023-04-07T00:33:49.673Z,1.29
2023-04-07T00:34:28.591Z,1.37
2023-04-07T00:35:28.546Z,1.38
2023-04-07T00:36:28.422Z,1.30
2023-04-07T00:37:28.348Z,1.40
2023-04-07T00:38:28.245Z,1.40
2023-04-07T00:39:49.170Z,1.41
2023-04-07T00:40:28.076Z,1.41
2023-04-07T00:41:27.994Z,1.38
2023-04-07T00:42:27.911Z,1.43
2023-04-07T00:43:27.819Z,1.44
2023-04-07T00:44:27.735Z,1.44
2023-04-07T00:45:48.632Z,1.47
2023-04-07T00:46:27.580Z,1.26
2023-04-07T00:47:27.526Z,1.26
2023-04-07T00:48:27.403Z,1.26
2023-04-07T00:49:27.309Z,1.28
2023-04-07T00:50:27.218Z,1.25
2023-04-07T00:51:48.114Z,1.30
2023-04-07T00:52:27.047Z,1.30
2023-04-07T00:53:26.966Z,1.26
2023-04-07T00:54:26.882Z,1.28
2023-04-07T00:55:26.789Z,1.29
2023-04-07T00:56:26.710Z,1.26
2023-04-07T00:57:47.605Z,1.25
2023-04-07T00:58:26.534Z,1.29
2023-04-07T00:59:26.476Z,1.25
2023-04-07T01:00:26.353Z,1.22
2023-04-07T01:01:26.400Z,1.32
2023-04-07T01:02:26.360Z,1.25
2023-04-07T01:03:47.431Z,1.29
2023-04-07T01:04:26.113Z,1.30
2023-04-07T01:05:25.930Z,1.40
2023-04-07T01:06:25.835Z,1.41
2023-04-07T01:07:25.752Z,1.37
2023-04-07T01:08:25.666Z,1.30
2023-04-07T01:09:46.570Z,1.26
2023-04-07T01:10:25.496Z,1.30
2023-04-07T01:11:25.421Z,1.18
2023-04-07T01:12:25.332Z,1.19
2023-04-07T01:13:25.242Z,1.20
2023-04-07T01:14:25.168Z,1.15
2023-04-07T01:15:46.071Z,1.22
2023-04-07T01:16:25.022Z,1.23
2023-04-07T01:17:24.924Z,1.25
2023-04-07T01:18:24.806Z,1.28
2023-04-07T01:19:24.721Z,1.28
2023-04-07T01:20:24.637Z,1.26
2023-04-07T01:21:45.527Z,1.26
2023-04-07T01:22:24.464Z,1.28
2023-04-07T01:23:24.377Z,1.23
2023-04-07T01:24:24.287Z,1.25
2023-04-07T01:25:24.204Z,1.26
2023-04-07T01:26:24.118Z,1.23
2023-04-07T01:27:45.005Z,1.22
2023-04-07T01:28:23.938Z,1.25
2023-04-07T01:29:23.862Z,1.25
2023-04-07T01:30:23.769Z,1.25
2023-04-07T01:31:23.725Z,1.22
2023-04-07T01:32:23.617Z,1.26
2023-04-07T01:33:44.513Z,1.28
2023-04-07T01:34:23.429Z,1.29
2023-04-07T01:35:23.345Z,1.32
2023-04-07T01:36:23.250Z,1.34
2023-04-07T01:37:23.277Z,1.30
2023-04-07T01:38:23.078Z,1.29
2023-04-07T01:39:43.988Z,1.28
2023-04-07T01:40:22.915Z,1.23
2023-04-07T01:41:22.833Z,1.26
2023-04-07T01:42:22.742Z,1.28
2023-04-07T01:43:22.668Z,1.23
2023-04-07T01:44:22.566Z,1.25
2023-04-07T01:45:43.478Z,1.23
2023-04-07T01:46:22.394Z,1.29
2023-04-07T01:47:22.444Z,1.28
2023-04-07T01:48:22.220Z,1.20
2023-04-07T01:49:22.144Z,1.16
2023-04-07T01:50:22.081Z,1.18
2023-04-07T01:51:42.950Z,1.18
2023-04-07T01:52:21.878Z,1.22
2023-04-07T01:53:21.814Z,1.20
2023-04-07T01:54:21.724Z,1.20
2023-04-07T01:55:21.637Z,1.15
2023-04-07T01:56:21.577Z,1.08
2023-04-07T01:57:42.438Z,1.12
2023-04-07T01:58:21.360Z,1.18
2023-04-07T01:59:21.275Z,1.18
2023-04-07T02:00:21.201Z,1.20
2023-04-07T02:01:21.136Z,1.18
2023-04-07T02:02:21.090Z,1.16
2023-04-07T02:03:41.987Z,1.12
2023-04-07T02:04:20.847Z,1.07
2023-04-07T02:05:20.775Z,1.02
2023-04-07T02:06:20.678Z,1.15
2023-04-07T02:07:20.588Z,1.12
2023-04-07T02:08:20.498Z,1.20
2023-04-07T02:09:41.419Z,1.12
2023-04-07T02:10:20.329Z,1.19
2023-04-07T02:11:20.248Z,1.23
2023-04-07T02:12:20.155Z,1.19
2023-04-07T02:13:20.091Z,1.15
2023-04-07T02:14:19.984Z,1.12
2023-04-07T02:15:40.883Z,1.18
2023-04-07T02:16:19.837Z,1.08
2023-04-07T02:17:19.729Z,1.19
2023-04-07T02:18:19.639Z,1.16
2023-04-07T02:19:19.556Z,1.12
2023-04-07T02:20:19.468Z,1.23
2023-04-07T02:21:40.356Z,1.20
2023-04-07T02:22:19.291Z,1.18
2023-04-07T02:23:19.208Z,1.23
2023-04-07T02:24:19.117Z,1.25
2023-04-07T02:25:19.036Z,1.29
2023-04-07T02:26:18.955Z,1.30
2023-04-07T02:27:39.840Z,1.28
2023-04-07T02:28:18.772Z,1.28
2023-04-07T02:29:18.699Z,1.28
2023-04-07T02:30:18.612Z,1.29
2023-04-07T02:31:18.600Z,1.29
2023-04-07T02:32:18.427Z,1.32
2023-04-07T02:33:39.324Z,1.25
2023-04-07T02:34:18.261Z,1.25
2023-04-07T02:35:18.176Z,1.37
2023-04-07T02:36:18.095Z,1.28
2023-04-07T02:37:18.000Z,1.38
2023-04-07T02:38:17.919Z,1.26
2023-04-07T02:39:38.833Z,1.34
2023-04-07T02:40:17.754Z,1.30
2023-04-07T02:41:17.654Z,1.44
2023-04-07T02:42:17.596Z,1.44
2023-04-07T02:43:17.480Z,1.36
2023-04-07T02:44:17.402Z,1.34
2023-04-07T02:45:38.316Z,1.30
2023-04-07T02:46:17.245Z,1.36
2023-04-07T02:47:17.139Z,1.37
2023-04-07T02:48:17.059Z,1.32
2023-04-07T02:49:16.957Z,1.37
2023-04-07T02:50:16.885Z,1.41
2023-04-07T02:51:37.771Z,1.29
2023-04-07T02:52:16.705Z,1.32
2023-04-07T02:53:16.618Z,1.41
2023-04-07T02:54:16.558Z,1.40
2023-04-07T02:55:16.445Z,1.41
2023-04-07T02:56:16.358Z,1.43
2023-04-07T02:57:37.260Z,1.37
2023-04-07T02:58:16.188Z,1.47
2023-04-07T02:59:16.110Z,1.38
2023-04-07T03:00:16.016Z,1.32
2023-04-07T03:01:15.951Z,1.34
2023-04-07T03:02:15.934Z,1.36
2023-04-07T03:03:36.862Z,1.38
2023-04-07T03:04:15.808Z,1.30
2023-04-07T03:05:15.589Z,1.28
2023-04-07T03:06:15.496Z,1.16
2023-04-07T03:07:15.424Z,1.18
2023-04-07T03:08:15.324Z,1.23
2023-04-07T03:09:36.221Z,1.26
2023-04-07T03:10:15.159Z,1.19
2023-04-07T03:11:15.066Z,1.25
2023-04-07T03:12:14.982Z,1.23
2023-04-07T03:13:14.898Z,1.26
2023-04-07T03:14:14.810Z,1.29
2023-04-07T03:15:35.693Z,1.36
2023-04-07T03:16:14.636Z,1.40
2023-04-07T03:17:14.551Z,1.40
2023-04-07T03:18:14.464Z,1.38
2023-04-07T03:19:14.386Z,1.44
2023-04-07T03:20:14.296Z,1.48
2023-04-07T03:21:35.184Z,1.48
2023-04-07T03:22:14.121Z,1.46
2023-04-07T03:23:14.037Z,1.52
2023-04-07T03:24:13.951Z,1.64
2023-04-07T03:25:13.877Z,1.61
2023-04-07T03:26:13.776Z,1.65
2023-04-07T03:27:34.664Z,1.68
2023-04-07T03:28:13.604Z,1.68
2023-04-07T03:29:13.513Z,1.65
2023-04-07T03:30:13.432Z,1.65
2023-04-07T03:31:13.377Z,1.68
2023-04-07T03:32:13.267Z,1.62
2023-04-07T03:33:34.169Z,1.59
2023-04-07T03:34:13.096Z,1.58
2023-04-07T03:35:13.021Z,1.59
2023-04-07T03:36:12.942Z,1.59
2023-04-07T03:37:12.829Z,1.58
2023-04-07T03:38:12.755Z,1.55
2023-04-07T03:39:33.646Z,1.58
2023-04-07T03:40:12.602Z,1.62
2023-04-07T03:41:12.479Z,1.72
2023-04-07T03:42:12.402Z,1.66
2023-04-07T03:43:12.330Z,1.68
2023-04-07T03:44:12.227Z,1.72
2023-04-07T03:45:33.135Z,1.76
2023-04-07T03:46:12.063Z,1.59
2023-04-07T03:47:11.968Z,1.59
2023-04-07T03:48:11.910Z,1.72
2023-04-07T03:49:11.798Z,1.68
2023-04-07T03:50:11.714Z,1.64
2023-04-07T03:51:32.602Z,1.62
2023-04-07T03:52:11.540Z,1.64
2023-04-07T03:53:11.465Z,1.65
2023-04-07T03:54:11.369Z,1.68
2023-04-07T03:55:11.278Z,1.65
2023-04-07T03:56:11.199Z,1.65
2023-04-07T03:57:32.088Z,1.68
2023-04-07T03:58:11.024Z,1.79
2023-04-07T03:59:10.937Z,1.77
2023-04-07T04:00:10.868Z,1.82
2023-04-07T04:01:10.767Z,1.79
2023-04-07T04:02:10.757Z,1.82
2023-04-07T04:03:31.641Z,1.79
2023-04-07T04:04:10.713Z,1.79
2023-04-07T04:05:10.420Z,1.80
2023-04-07T04:06:10.332Z,1.76
2023-04-07T04:07:10.245Z,1.83
2023-04-07T04:08:10.172Z,1.82
2023-04-07T04:09:31.074Z,1.86
2023-04-07T04:10:09.990Z,1.84
2023-04-07T04:11:09.912Z,1.80
2023-04-07T04:12:09.823Z,1.79
2023-04-07T04:13:09.737Z,1.79
2023-04-07T04:14:09.656Z,1.73
2023-04-07T04:15:30.548Z,1.73
2023-04-07T04:16:09.519Z,1.76
2023-04-07T04:17:09.388Z,1.65
2023-04-07T04:18:09.311Z,1.76
2023-04-07T04:19:09.224Z,1.66
2023-04-07T04:20:09.133Z,1.68
2023-04-07T04:21:30.030Z,1.66
2023-04-07T04:22:08.997Z,1.62
2023-04-07T04:23:08.916Z,1.65
2023-04-07T04:24:08.796Z,1.69
2023-04-07T04:25:08.717Z,1.72
2023-04-07T04:26:08.624Z,1.74
2023-04-07T04:27:29.510Z,1.73
2023-04-07T04:28:08.450Z,1.77
2023-04-07T04:29:08.362Z,1.82
2023-04-07T04:30:08.283Z,1.80
2023-04-07T04:31:08.244Z,1.87
2023-04-07T04:32:08.129Z,1.87
2023-04-07T04:33:28.992Z,1.79
2023-04-07T04:34:07.943Z,1.83
2023-04-07T04:35:07.847Z,1.82
2023-04-07T04:36:07.756Z,1.83
2023-04-07T04:37:07.691Z,1.79
2023-04-07T04:38:07.592Z,1.77
2023-04-07T04:39:28.479Z,1.80
2023-04-07T04:40:07.428Z,1.64
2023-04-07T04:41:07.337Z,1.59
2023-04-07T04:42:07.241Z,1.64
2023-04-07T04:43:07.213Z,1.73
2023-04-07T04:44:07.344Z,1.69
2023-04-07T04:45:27.959Z,1.76
2023-04-07T04:46:06.912Z,1.77
2023-04-07T04:47:06.847Z,1.83
2023-04-07T04:48:06.785Z,1.83
2023-04-07T04:49:06.635Z,1.84
2023-04-07T04:50:06.571Z,1.83
2023-04-07T04:51:27.473Z,1.84
2023-04-07T04:52:06.389Z,1.82
2023-04-07T04:53:06.293Z,1.91
2023-04-07T04:54:06.216Z,1.90
2023-04-07T04:55:06.129Z,1.83
2023-04-07T04:56:06.043Z,1.98
2023-04-07T04:57:26.962Z,1.92
2023-04-07T04:58:05.870Z,1.92
2023-04-07T04:59:05.790Z,1.95
2023-04-07T05:00:05.706Z,2.05
2023-04-07T05:01:05.717Z,2.06
2023-04-07T05:02:05.628Z,2.06
2023-04-07T05:03:26.577Z,2.06
2023-04-07T05:04:05.473Z,2.01
2023-04-07T05:05:05.522Z,2.06
2023-04-07T05:06:05.182Z,2.17
2023-04-07T05:07:05.097Z,2.12
2023-04-07T05:08:05.006Z,2.17
2023-04-07T05:09:25.895Z,2.14
2023-04-07T05:10:04.844Z,2.13
2023-04-07T05:11:04.749Z,2.17
2023-04-07T05:12:04.662Z,2.14
2023-04-07T05:13:04.582Z,2.21
2023-04-07T05:14:04.504Z,2.14
2023-04-07T05:15:25.380Z,2.17
2023-04-07T05:16:04.346Z,2.16
2023-04-07T05:17:04.228Z,2.21
2023-04-07T05:18:04.184Z,2.17
2023-04-07T05:19:04.074Z,2.19
2023-04-07T05:20:03.977Z,2.21
2023-04-07T05:21:24.896Z,2.26
2023-04-07T05:22:03.804Z,2.21
2023-04-07T05:23:03.718Z,2.19
2023-04-07T05:24:03.651Z,2.21
2023-04-07T05:25:03.543Z,2.23
2023-04-07T05:26:03.466Z,2.17
2023-04-07T05:27:24.359Z,2.17
2023-04-07T05:28:03.301Z,2.19
2023-04-07T05:29:03.262Z,2.32
2023-04-07T05:30:03.117Z,2.23
2023-04-07T05:31:03.838Z,2.31
2023-04-07T05:32:03.066Z,2.26
2023-04-07T05:33:23.840Z,2.32
2023-04-07T05:34:02.794Z,2.32
2023-04-07T05:35:02.698Z,2.34
2023-04-07T05:36:02.643Z,2.32
2023-04-07T05:37:02.521Z,2.34
2023-04-07T05:38:02.436Z,2.37
2023-04-07T05:39:23.325Z,2.32
2023-04-07T05:40:02.267Z,2.41
2023-04-07T05:41:02.189Z,2.31
2023-04-07T05:42:02.089Z,2.35
2023-04-07T05:43:02.038Z,2.48
2023-04-07T05:44:01.924Z,2.39
2023-04-07T05:45:22.838Z,2.55
2023-04-07T05:46:01.786Z,2.57
2023-04-07T05:47:01.657Z,2.59
2023-04-07T05:48:01.676Z,2.49
2023-04-07T05:49:16.698Z,2.52
2023-04-07T05:50:01.400Z,2.57
2023-04-07T05:51:22.294Z,2.53
2023-04-07T05:52:01.240Z,2.53
2023-04-07T05:53:01.142Z,2.52
2023-04-07T05:54:01.061Z,2.50
2023-04-07T05:55:00.986Z,2.60
2023-04-07T05:56:00.893Z,2.57
2023-04-07T05:57:21.778Z,2.57
2023-04-07T05:58:00.721Z,2.70
2023-04-07T05:59:00.639Z,2.68
2023-04-07T06:00:00.561Z,2.74
2023-04-07T06:01:00.466Z,2.84
2023-04-07T06:02:00.454Z,2.85
2023-04-07T06:03:21.383Z,2.92
2023-04-07T06:04:00.275Z,2.96
2023-04-07T06:05:00.167Z,2.98
2023-04-07T06:06:00.049Z,2.98
2023-04-07T06:06:59.946Z,2.99
2023-04-07T06:07:59.864Z,3.04
2023-04-07T06:09:20.752Z,3.17
2023-04-07T06:09:59.698Z,3.14
2023-04-07T06:10:59.604Z,3.16
2023-04-07T06:11:59.517Z,3.17
2023-04-07T06:12:59.433Z,3.25
2023-04-07T06:13:59.353Z,3.32
2023-04-07T06:15:20.242Z,3.35
2023-04-07T06:15:59.186Z,3.44
2023-04-07T06:16:59.116Z,3.43
2023-04-07T06:17:59.054Z,3.48
2023-04-07T06:18:58.929Z,3.53
2023-04-07T06:19:58.850Z,3.50
2023-04-07T06:21:19.728Z,3.61
2023-04-07T06:21:58.666Z,3.66
2023-04-07T06:22:58.585Z,3.69
2023-04-07T06:23:58.506Z,3.71
2023-04-07T06:24:58.414Z,3.65
2023-04-07T06:25:58.329Z,3.66
2023-04-07T06:27:19.214Z,3.74
2023-04-07T06:27:58.154Z,3.77
2023-04-07T06:28:58.062Z,3.87
2023-04-07T06:29:58.025Z,3.89
2023-04-07T06:30:59.445Z,3.97
2023-04-07T06:31:57.829Z,3.87
2023-04-07T06:33:18.717Z,4.01
2023-04-07T06:33:57.645Z,4.04
2023-04-07T06:34:57.666Z,4.05
2023-04-07T06:35:57.505Z,4.04
2023-04-07T06:36:58.321Z,4.12
2023-04-07T06:37:57.312Z,4.11
2023-04-07T06:39:18.192Z,4.19
2023-04-07T06:39:57.133Z,4.20
2023-04-07T06:40:57.044Z,4.29
2023-04-07T06:41:56.984Z,4.36
2023-04-07T06:42:56.878Z,4.36
2023-04-07T06:43:56.807Z,4.48
2023-04-07T06:45:17.702Z,4.44
2023-04-07T06:45:56.640Z,4.55
2023-04-07T06:46:56.561Z,4.52
2023-04-07T06:47:56.510Z,4.64
2023-04-07T06:48:56.371Z,4.64
2023-04-07T06:49:56.285Z,4.72
2023-04-07T06:51:17.177Z,4.74
2023-04-07T06:51:56.113Z,4.72
2023-04-07T06:52:56.027Z,4.84
2023-04-07T06:53:55.955Z,4.93
2023-04-07T06:54:55.860Z,4.98
2023-04-07T06:55:55.771Z,5.00
2023-04-07T06:57:16.676Z,5.10
2023-04-07T06:57:55.604Z,5.10
2023-04-07T06:58:55.524Z,5.18
2023-04-07T06:59:55.435Z,5.29
2023-04-07T07:00:55.356Z,5.31
2023-04-07T07:01:55.344Z,5.41
2023-04-07T07:03:16.403Z,5.45
2023-04-07T07:03:55.229Z,5.60
2023-04-07T07:04:55.022Z,5.63
2023-04-07T07:05:54.934Z,5.65
2023-04-07T07:06:54.845Z,5.72
2023-04-07T07:07:54.759Z,5.68
2023-04-07T07:09:15.658Z,5.83
2023-04-07T07:09:54.590Z,5.81
2023-04-07T07:10:54.520Z,5.81
2023-04-07T07:11:54.435Z,5.97
2023-04-07T07:12:54.349Z,6.06
2023-04-07T07:13:54.261Z,6.10
2023-04-07T07:15:15.154Z,6.27
2023-04-07T07:15:54.213Z,6.26
2023-04-07T07:16:54.017Z,6.34
2023-04-07T07:17:54.191Z,6.42
2023-04-07T07:18:53.843Z,6.44
2023-04-07T07:19:53.748Z,6.48
2023-04-07T07:21:14.648Z,6.57
2023-04-07T07:21:53.582Z,6.57
2023-04-07T07:22:53.503Z,6.69
2023-04-07T07:23:53.441Z,6.68
2023-04-07T07:24:53.332Z,6.70
2023-04-07T07:25:53.257Z,6.81
2023-04-07T07:27:14.149Z,6.90
2023-04-07T07:27:53.088Z,6.94
2023-04-07T07:28:52.996Z,7.01
2023-04-07T07:29:52.911Z,6.94
2023-04-07T07:30:52.848Z,6.96
2023-04-07T07:31:54.432Z,7.16
2023-04-07T07:33:13.662Z,7.06
2023-04-07T07:33:52.573Z,7.19
2023-04-07T07:34:52.491Z,7.20
2023-04-07T07:35:52.461Z,7.23
2023-04-07T07:36:52.337Z,7.27
2023-04-07T07:37:52.245Z,7.35
2023-04-07T07:39:13.151Z,7.38
2023-04-07T07:39:52.080Z,7.44
2023-04-07T07:40:52.016Z,7.59
2023-04-07T07:41:51.959Z,7.55
2023-04-07T07:42:51.846Z,7.68
2023-04-07T07:43:51.740Z,7.76
2023-04-07T07:45:12.640Z,7.79
2023-04-07T07:45:51.575Z,7.86
2023-04-07T07:46:51.538Z,8.01
2023-04-07T07:47:51.434Z,8.07
2023-04-07T07:48:51.496Z,8.18
2023-04-07T07:49:51.243Z,8.17
2023-04-07T07:51:12.141Z,8.22
2023-04-07T07:51:51.101Z,8.25
2023-04-07T07:52:51.007Z,8.22
2023-04-07T07:53:50.917Z,8.27
2023-04-07T07:54:50.827Z,8.24
2023-04-07T07:55:50.743Z,8.25
2023-04-07T07:57:11.644Z,8.42
2023-04-07T07:57:50.578Z,8.48
2023-04-07T07:58:50.505Z,8.48
2023-04-07T07:59:50.413Z,8.44
2023-04-07T08:00:50.581Z,8.55
2023-04-07T08:01:50.370Z,8.47
2023-04-07T08:03:11.382Z,8.43
2023-04-07T08:03:50.351Z,8.60
2023-04-07T08:04:50.141Z,8.61
2023-04-07T08:05:49.998Z,8.66
2023-04-07T08:06:49.911Z,8.60
2023-04-07T08:07:49.828Z,8.70
2023-04-07T08:09:10.649Z,8.75
2023-04-07T08:09:49.588Z,8.75
2023-04-07T08:10:49.509Z,8.90
2023-04-07T08:11:49.422Z,8.93
2023-04-07T08:12:49.351Z,8.93
2023-04-07T08:13:49.697Z,9.00
2023-04-07T08:15:10.160Z,9.05
2023-04-07T08:15:49.101Z,9.02
2023-04-07T08:16:49.012Z,9.06
2023-04-07T08:17:49.006Z,9.02
2023-04-07T08:18:49.133Z,9.09
2023-04-07T08:19:48.762Z,9.09
2023-04-07T08:21:09.691Z,9.17
2023-04-07T08:21:48.652Z,9.20
2023-04-07T08:22:48.519Z,9.22
2023-04-07T08:23:48.665Z,9.28
2023-04-07T08:24:48.361Z,9.17
2023-04-07T08:25:48.264Z,9.16
2023-04-07T08:27:09.173Z,9.29
2023-04-07T08:27:48.216Z,9.31
2023-04-07T08:28:48.026Z,9.29
2023-04-07T08:29:47.951Z,9.29
2023-04-07T08:30:47.941Z,9.20
2023-04-07T08:31:47.796Z,9.19
2023-04-07T08:33:08.747Z,9.29
2023-04-07T08:33:47.952Z,9.35
2023-04-07T08:34:47.542Z,9.40
2023-04-07T08:35:47.616Z,9.55
2023-04-07T08:36:47.367Z,9.52
2023-04-07T08:37:47.285Z,9.61
2023-04-07T08:39:08.177Z,9.53
2023-04-07T08:39:47.119Z,9.67
2023-04-07T08:40:47.035Z,9.64
2023-04-07T08:41:46.962Z,9.58
2023-04-07T08:42:47.361Z,9.64
2023-04-07T08:43:47.080Z,9.68
2023-04-07T08:45:07.753Z,9.70
2023-04-07T08:45:46.626Z,9.72
2023-04-07T08:46:46.577Z,9.70
2023-04-07T08:47:46.511Z,9.68
2023-04-07T08:48:46.380Z,9.74
2023-04-07T08:49:46.300Z,9.86
2023-04-07T08:51:07.200Z,9.90
2023-04-07T08:51:46.136Z,9.96
2023-04-07T08:52:46.058Z,9.89
2023-04-07T08:53:46.323Z,9.92
2023-04-07T08:54:45.903Z,9.93
2023-04-07T08:55:45.852Z,9.96
2023-04-07T08:57:06.719Z,10.04
2023-04-07T08:57:45.645Z,10.13
2023-04-07T08:58:45.574Z,10.16
2023-04-07T08:59:45.478Z,10.21
2023-04-07T09:00:45.437Z,10.29
2023-04-07T09:01:45.531Z,10.31
2023-04-07T09:03:06.349Z,10.29
2023-04-07T09:03:45.239Z,10.39
2023-04-07T09:04:45.076Z,10.33
2023-04-07T09:05:44.993Z,10.40
2023-04-07T09:06:44.922Z,10.33
2023-04-07T09:07:44.837Z,10.25
2023-04-07T09:09:05.736Z,10.28
2023-04-07T09:09:44.671Z,10.28
2023-04-07T09:10:44.590Z,10.28
2023-04-07T09:11:44.517Z,10.25
2023-04-07T09:12:44.459Z,10.21
2023-04-07T09:13:44.350Z,10.29
2023-04-07T09:15:05.245Z,10.21
2023-04-07T09:15:44.187Z,10.37
2023-04-07T09:16:44.140Z,10.31
2023-04-07T09:17:44.040Z,10.41
2023-04-07T09:18:43.947Z,10.43
2023-04-07T09:19:43.855Z,10.37
2023-04-07T09:21:04.760Z,10.33
2023-04-07T09:21:43.690Z,10.36
2023-04-07T09:22:43.694Z,10.34
2023-04-07T09:23:43.535Z,10.39
2023-04-07T09:24:43.450Z,10.43
2023-04-07T09:25:43.372Z,10.34
2023-04-07T09:27:04.275Z,10.43
2023-04-07T09:27:43.255Z,10.36
2023-04-07T09:28:43.136Z,10.36
2023-04-07T09:29:43.046Z,10.40
2023-04-07T09:30:42.972Z,10.44
2023-04-07T09:31:42.895Z,10.43
2023-04-07T09:33:03.871Z,10.39
2023-04-07T09:33:42.730Z,10.40
2023-04-07T09:34:42.642Z,10.40
2023-04-07T09:35:42.587Z,10.39
2023-04-07T09:36:42.491Z,10.41
2023-04-07T09:37:42.407Z,10.43
2023-04-07T09:39:03.301Z,10.44
2023-04-07T09:39:42.235Z,10.58
2023-04-07T09:40:42.170Z,10.53
2023-04-07T09:41:42.141Z,10.56
2023-04-07T09:42:41.997Z,10.60
2023-04-07T09:43:41.929Z,10.65
2023-04-07T09:45:02.821Z,10.56
2023-04-07T09:45:41.864Z,10.55
2023-04-07T09:46:41.712Z,10.55
2023-04-07T09:47:41.620Z,10.59
2023-04-07T09:48:41.508Z,10.58
2023-04-07T09:49:41.433Z,10.60
2023-04-07T09:51:02.330Z,10.67
2023-04-07T09:51:41.262Z,10.69
2023-04-07T09:52:41.194Z,10.71
2023-04-07T09:53:41.102Z,10.75
2023-04-07T09:54:41.024Z,10.85
2023-04-07T09:55:40.953Z,10.85
2023-04-07T09:57:01.853Z,10.95
2023-04-07T09:57:40.786Z,11.00
2023-04-07T09:58:40.707Z,11.05
2023-04-07T09:59:40.619Z,11.11
2023-04-07T10:00:40.544Z,11.13
2023-04-07T10:01:40.523Z,11.11
2023-04-07T10:03:01.435Z,11.17
2023-04-07T10:03:40.356Z,11.14
2023-04-07T10:04:40.316Z,11.26
2023-04-07T10:05:40.137Z,11.17
2023-04-07T10:06:40.058Z,11.11
2023-04-07T10:07:41.444Z,11.13
2023-04-07T10:09:00.890Z,11.13
2023-04-07T10:09:39.825Z,11.13
2023-04-07T10:10:39.736Z,11.14
2023-04-07T10:11:39.661Z,11.14
2023-04-07T10:12:39.576Z,11.17
2023-04-07T10:13:39.495Z,11.32
2023-04-07T10:15:00.401Z,11.21
2023-04-07T10:15:39.335Z,11.35
2023-04-07T10:16:39.287Z,11.46
2023-04-07T10:17:39.193Z,11.51
2023-04-07T10:18:39.100Z,11.57
2023-04-07T10:19:39.015Z,11.61
2023-04-07T10:20:59.922Z,11.71
2023-04-07T10:21:38.855Z,11.78
2023-04-07T10:22:38.777Z,11.84
2023-04-07T10:23:38.689Z,11.93
2023-04-07T10:24:38.618Z,11.95
2023-04-07T10:25:38.533Z,12.00
2023-04-07T10:26:59.439Z,12.08
2023-04-07T10:27:38.374Z,12.12
2023-04-07T10:28:38.304Z,12.23
2023-04-07T10:29:38.213Z,12.21
2023-04-07T10:30:38.134Z,12.27
2023-04-07T10:31:38.078Z,12.18
2023-04-07T10:32:59.082Z,12.30
2023-04-07T10:33:37.896Z,12.42
2023-04-07T10:34:37.817Z,12.56
2023-04-07T10:35:37.769Z,12.61
2023-04-07T10:36:37.662Z,12.71
2023-04-07T10:37:37.678Z,12.91
2023-04-07T10:38:58.479Z,13.10
2023-04-07T10:39:37.417Z,13.25
2023-04-07T10:40:37.356Z,13.25
2023-04-07T10:41:37.264Z,13.29
2023-04-07T10:42:37.171Z,13.40
2023-04-07T10:43:37.102Z,13.40
2023-04-07T10:44:57.994Z,13.52
2023-04-07T10:45:36.945Z,13.52
2023-04-07T10:46:36.879Z,13.65
2023-04-07T10:47:36.810Z,13.63
2023-04-07T10:48:36.707Z,13.62
2023-04-07T10:49:36.622Z,13.78
2023-04-07T10:50:57.522Z,13.78
2023-04-07T10:51:36.466Z,13.87
2023-04-07T10:52:36.379Z,13.81
2023-04-07T10:53:36.304Z,13.92
2023-04-07T10:54:36.224Z,13.94
2023-04-07T10:55:36.142Z,13.94
2023-04-07T10:56:57.050Z,13.92
2023-04-07T10:57:35.989Z,13.94
2023-04-07T10:58:35.905Z,13.94
2023-04-07T10:59:35.829Z,13.94
2023-04-07T11:00:35.747Z,13.96
2023-04-07T11:01:35.686Z,13.96
2023-04-07T11:02:56.702Z,13.86
2023-04-07T11:03:35.574Z,13.78
2023-04-07T11:04:35.487Z,13.58
2023-04-07T11:05:35.357Z,13.45
2023-04-07T11:06:35.276Z,13.38
2023-04-07T11:07:35.197Z,13.33
2023-04-07T11:08:56.100Z,13.28
2023-04-07T11:09:35.036Z,13.25
2023-04-07T11:10:34.959Z,13.24
2023-04-07T11:11:34.899Z,13.06
2023-04-07T11:12:34.804Z,12.86
2023-04-07T11:13:34.721Z,12.89
2023-04-07T11:14:55.618Z,12.86
2023-04-07T11:15:34.579Z,12.84
2023-04-07T11:16:34.523Z,12.84
2023-04-07T11:17:34.417Z,12.70
2023-04-07T11:18:34.322Z,12.67
2023-04-07T11:19:34.247Z,12.71
2023-04-07T11:20:55.154Z,12.61
2023-04-07T11:21:34.091Z,12.63
2023-04-07T11:22:34.010Z,12.70
2023-04-07T11:23:33.939Z,12.61
2023-04-07T11:24:33.863Z,12.61
2023-04-07T11:25:33.789Z,12.64
2023-04-07T11:26:54.670Z,12.70
2023-04-07T11:27:33.616Z,12.66
2023-04-07T11:28:33.548Z,12.64
2023-04-07T11:29:33.455Z,12.60
2023-04-07T11:30:33.379Z,12.53
2023-04-07T11:31:33.356Z,12.42
2023-04-07T11:32:54.228Z,12.44
2023-04-07T11:33:33.143Z,12.42
2023-04-07T11:34:33.064Z,12.41
2023-04-07T11:35:33.003Z,12.37
2023-04-07T11:36:32.903Z,12.41
2023-04-07T11:37:32.827Z,12.44
2023-04-07T11:38:53.729Z,12.44
2023-04-07T11:39:32.670Z,12.48
2023-04-07T11:40:32.581Z,12.45
2023-04-07T11:41:32.509Z,12.60
2023-04-07T11:42:32.430Z,12.61
2023-04-07T11:43:32.346Z,12.59
2023-04-07T11:44:53.264Z,12.48
2023-04-07T11:45:32.200Z,12.46
2023-04-07T11:46:32.189Z,12.52
2023-04-07T11:47:32.042Z,12.44
2023-04-07T11:48:31.942Z,12.45
2023-04-07T11:49:31.944Z,12.60
2023-04-07T11:50:52.901Z,12.55
2023-04-07T11:51:31.714Z,12.52
2023-04-07T11:52:31.630Z,12.60
2023-04-07T11:53:31.553Z,12.55
2023-04-07T11:54:31.472Z,12.45
2023-04-07T11:55:31.401Z,12.45
2023-04-07T11:56:52.299Z,12.30
2023-04-07T11:57:31.237Z,12.34
2023-04-07T11:58:31.302Z,12.24
2023-04-07T11:59:31.080Z,12.19
2023-04-07T12:00:30.999Z,12.30
2023-04-07T12:01:30.960Z,12.34
2023-04-07T12:02:51.914Z,12.44
2023-04-07T12:03:30.867Z,12.44
2023-04-07T12:04:30.740Z,12.48
2023-04-07T12:07:58.275Z,12.64
2023-04-07T12:08:36.303Z,12.70
2023-04-07T12:09:36.468Z,12.60
2023-04-07T12:10:36.141Z,12.64
2023-04-07T12:11:36.066Z,12.60
2023-04-07T12:12:35.985Z,12.64
2023-04-07T12:13:35.904Z,12.78
2023-04-07T12:14:35.865Z,12.94
2023-04-07T12:15:35.746Z,13.02
2023-04-07T12:16:35.684Z,13.02
2023-04-07T12:17:35.627Z,13.14
2023-04-07T12:18:35.516Z,13.17
2023-04-07T12:19:35.434Z,12.89
2023-04-07T12:20:37.168Z,12.73
2023-04-07T12:21:35.268Z,12.31
2023-04-07T12:22:35.193Z,12.06
2023-04-07T12:23:35.121Z,11.81
2023-04-07T12:32:52.603Z,12.31
2023-04-07T12:33:52.404Z,12.41
2023-04-07T12:34:52.296Z,12.48
2023-04-07T12:35:52.409Z,12.53
2023-04-07T12:36:52.201Z,12.73
2023-04-07T12:37:52.346Z,12.64
2023-04-07T12:38:51.995Z,12.71
2023-04-07T12:39:51.888Z,12.67
2023-04-07T12:40:51.815Z,12.69
2023-04-07T12:41:51.725Z,12.55
2023-04-07T12:42:51.649Z,12.60
2023-04-07T12:43:52.028Z,12.53
2023-04-07T12:44:51.482Z,12.59
2023-04-07T12:45:51.471Z,12.66
2023-04-07T12:46:51.328Z,12.78
2023-04-07T12:47:51.316Z,12.81
2023-04-07T12:48:51.166Z,13.04
2023-04-07T12:49:51.094Z,13.21
2023-04-07T12:50:51.005Z,13.15
2023-04-07T12:51:50.920Z,13.25
2023-04-07T12:52:50.845Z,13.32
2023-04-07T12:53:51.063Z,13.33
2023-04-07T12:54:50.686Z,13.32
2023-04-07T12:55:50.747Z,13.36
2023-04-07T12:56:50.527Z,13.53
2023-04-07T12:57:50.442Z,13.50
2023-04-07T12:58:50.376Z,13.61
2023-04-07T12:59:50.306Z,13.66
2023-04-07T13:00:50.212Z,13.66
2023-04-07T13:01:51.202Z,13.77
2023-04-07T13:02:50.166Z,13.78
2023-04-07T13:03:50.107Z,13.81
2023-04-07T13:04:49.888Z,13.80
2023-04-07T13:05:49.801Z,13.87
2023-04-07T13:06:49.743Z,13.91
2023-04-07T13:07:49.986Z,13.94
2023-04-07T13:08:49.560Z,13.94
2023-04-07T13:09:49.487Z,14.10
2023-04-07T13:10:49.417Z,14.14
2023-04-07T13:11:49.329Z,14.20
2023-04-07T13:12:49.245Z,14.20
2023-04-07T13:13:49.259Z,14.34
2023-04-07T13:14:59.314Z,14.46
2023-04-07T13:15:49.007Z,14.61
2023-04-07T13:16:48.943Z,14.67
2023-04-07T13:17:48.877Z,14.85
2023-04-07T13:18:48.770Z,14.88
2023-04-07T13:19:48.698Z,14.98